AAL108 KBOS-EGLL
Flight info
| Callsign | AAL108 |
|---|---|
| Flight time | N/A |
| Altitude | 39000 |
| Route | CELTK7 CELTK DCT FRILL DCT VITOL/M081F390 N21A CARAC DCT DOPHN/N0476F390 DCT PORTI/M081F390 NATT GISTI/N0457F390 DCT LONDU DCT ELPOM DCT ENJEX DCT AVZAC DCT INFEC DCT JETZI DCT AMFUL DCT ORZEB/N0345F230 P2 SIRIC |
| Aircraft | B772/H-SDE2E3FGHIJ5LORVWXY/LB1D1 |
Departure
| Time | N/A |
|---|---|
| Airport | Boston Logan International Airport (KBOS) |
Arrival
| Time | 2026-05-05 06:07 |
|---|---|
| Airport | London Heathrow Airport (EGLL) |
| Time | Latitude | Longitude | Altitude | Speed | Heading |
|---|---|---|---|---|---|
| 2026-05-05 05:53 | 51.34019 | -1.52845 | 13685 ft | 306 kts | 96° |
| 2026-05-05 05:53 | 51.33768 | -1.49485 | 13389 ft | 303 kts | 96° |
| 2026-05-05 05:53 | 51.33518 | -1.46152 | 13117 ft | 302 kts | 96° |
| 2026-05-05 05:53 | 51.33268 | -1.42809 | 12851 ft | 303 kts | 96° |
| 2026-05-05 05:54 | 51.33017 | -1.39474 | 12586 ft | 302 kts | 96° |
| 2026-05-05 05:54 | 51.32765 | -1.36154 | 12316 ft | 301 kts | 96° |
| 2026-05-05 05:54 | 51.32513 | -1.32835 | 12046 ft | 300 kts | 96° |
| 2026-05-05 05:54 | 51.32262 | -1.29531 | 11784 ft | 299 kts | 96° |
| 2026-05-05 05:55 | 51.32010 | -1.26234 | 11516 ft | 298 kts | 97° |
| 2026-05-05 05:55 | 51.31758 | -1.22949 | 11268 ft | 297 kts | 97° |
| 2026-05-05 05:55 | 51.31505 | -1.19674 | 11001 ft | 296 kts | 97° |
| 2026-05-05 05:55 | 51.31268 | -1.16408 | 10737 ft | 295 kts | 94° |
| 2026-05-05 05:56 | 51.31186 | -1.13141 | 10479 ft | 294 kts | 90° |
| 2026-05-05 05:56 | 51.31175 | -1.09879 | 10221 ft | 293 kts | 90° |
| 2026-05-05 05:56 | 51.31171 | -1.06676 | 9963 ft | 288 kts | 90° |
| 2026-05-05 05:56 | 51.31161 | -1.03685 | 9708 ft | 283 kts | 90° |
| 2026-05-05 05:57 | 51.31144 | -1.00567 | 9436 ft | 279 kts | 90° |
| 2026-05-05 05:57 | 51.31121 | -0.97482 | 9190 ft | 276 kts | 90° |
| 2026-05-05 05:57 | 51.31096 | -0.94423 | 8956 ft | 276 kts | 90° |
| 2026-05-05 05:57 | 51.31068 | -0.91357 | 8705 ft | 276 kts | 90° |
| 2026-05-05 05:58 | 51.31038 | -0.88289 | 8463 ft | 276 kts | 90° |
| 2026-05-05 05:58 | 51.31007 | -0.85223 | 8226 ft | 276 kts | 90° |
| 2026-05-05 05:58 | 51.30974 | -0.82162 | 7982 ft | 276 kts | 90° |
| 2026-05-05 05:58 | 51.30940 | -0.79098 | 7746 ft | 275 kts | 89° |
| 2026-05-05 05:59 | 51.30914 | -0.76063 | 7515 ft | 268 kts | 86° |
| 2026-05-05 05:59 | 51.31400 | -0.73319 | 7249 ft | 254 kts | 52° |
| 2026-05-05 05:59 | 51.32754 | -0.71701 | 7114 ft | 241 kts | 15° |
| 2026-05-05 05:59 | 51.34378 | -0.71610 | 6977 ft | 235 kts | 341° |
| 2026-05-05 06:00 | 51.35652 | -0.73120 | 6673 ft | 230 kts | 305° |
| 2026-05-05 06:00 | 51.36396 | -0.75414 | 6289 ft | 231 kts | 294° |
| 2026-05-05 06:00 | 51.37282 | -0.77467 | 5784 ft | 224 kts | 325° |
| 2026-05-05 06:00 | 51.38693 | -0.78361 | 5349 ft | 217 kts | 349° |
| 2026-05-05 06:01 | 51.40161 | -0.78710 | 4988 ft | 211 kts | 355° |
| 2026-05-05 06:01 | 51.41627 | -0.78836 | 4645 ft | 212 kts | 358° |
| 2026-05-05 06:01 | 51.43090 | -0.78918 | 4318 ft | 215 kts | 358° |
| 2026-05-05 06:01 | 51.44617 | -0.78999 | 3959 ft | 216 kts | 359° |
| 2026-05-05 06:02 | 51.46016 | -0.78553 | 3611 ft | 205 kts | 30° |
| 2026-05-05 06:02 | 51.46922 | -0.76914 | 3284 ft | 197 kts | 66° |
| 2026-05-05 06:02 | 51.47210 | -0.74849 | 3131 ft | 183 kts | 77° |
| 2026-05-05 06:02 | 51.47382 | -0.72859 | 3066 ft | 178 kts | 77° |
| 2026-05-05 06:03 | 51.47588 | -0.68850 | 2629 ft | 168 kts | 83° |
| 2026-05-05 06:03 | 51.47608 | -0.67028 | 2412 ft | 160 kts | 84° |
| 2026-05-05 06:03 | 51.47622 | -0.65276 | 2209 ft | 155 kts | 84° |
| 2026-05-05 06:04 | 51.47635 | -0.63526 | 1987 ft | 157 kts | 85° |
| 2026-05-05 06:04 | 51.47644 | -0.61824 | 1759 ft | 146 kts | 84° |
| 2026-05-05 06:04 | 51.47654 | -0.60280 | 1565 ft | 131 kts | 84° |
| 2026-05-05 06:04 | 51.47665 | -0.58864 | 1397 ft | 127 kts | 85° |
| 2026-05-05 06:05 | 51.47673 | -0.57440 | 1228 ft | 128 kts | 85° |
| 2026-05-05 06:05 | 51.47692 | -0.56016 | 1026 ft | 129 kts | 84° |
| 2026-05-05 06:05 | 51.47723 | -0.54576 | 841 ft | 129 kts | 85° |
| 2026-05-05 06:05 | 51.47728 | -0.53137 | 644 ft | 126 kts | 87° |
| 2026-05-05 06:06 | 51.47743 | -0.51706 | 491 ft | 128 kts | 87° |
| 2026-05-05 06:06 | 51.47742 | -0.50265 | 328 ft | 129 kts | 87° |
| 2026-05-05 06:06 | 51.47753 | -0.48823 | 164 ft | 130 kts | 87° |
| 2026-05-05 06:06 | 51.47751 | -0.47401 | 90 ft | 118 kts | 83° |
| 2026-05-05 06:07 | 51.47759 | -0.46322 | 95 ft | 71 kts | 90° |
| 2026-05-05 06:07 | 51.47761 | -0.45792 | 91 ft | 26 kts | 89° |
| 2026-05-05 06:07 | 51.47761 | -0.45574 | 91 ft | 14 kts | 91° |
| 2026-05-05 06:07 | 51.47697 | -0.45472 | 93 ft | 14 kts | 174° |
| 2026-05-05 06:08 | 51.47649 | -0.45465 | 90 ft | 7 kts | 175° |
| 2026-05-05 06:08 | 51.47606 | -0.45475 | 94 ft | 7 kts | 222° |
| 2026-05-05 06:08 | 51.47596 | -0.45548 | 95 ft | 7 kts | 268° |
| 2026-05-05 06:08 | 51.47594 | -0.45624 | 94 ft | 7 kts | 268° |
| 2026-05-05 06:09 | 51.47592 | -0.45700 | 91 ft | 7 kts | 268° |
| 2026-05-05 06:09 | 51.47593 | -0.45775 | 91 ft | 7 kts | 271° |
| 2026-05-05 06:09 | 51.47593 | -0.45850 | 94 ft | 7 kts | 271° |
| 2026-05-05 06:09 | 51.47594 | -0.45926 | 94 ft | 7 kts | 271° |
| 2026-05-05 06:10 | 51.47595 | -0.46003 | 94 ft | 7 kts | 271° |
| 2026-05-05 06:10 | 51.47596 | -0.46078 | 94 ft | 7 kts | 271° |
| 2026-05-05 06:10 | 51.47597 | -0.46154 | 92 ft | 7 kts | 271° |
| 2026-05-05 06:10 | 51.47597 | -0.46230 | 91 ft | 7 kts | 270° |
| 2026-05-05 06:11 | 51.47596 | -0.46319 | 94 ft | 9 kts | 270° |
| 2026-05-05 06:11 | 51.47595 | -0.46429 | 95 ft | 11 kts | 267° |
| 2026-05-05 06:11 | 51.47592 | -0.46557 | 91 ft | 12 kts | 268° |
| 2026-05-05 06:11 | 51.47591 | -0.46702 | 91 ft | 14 kts | 271° |
| 2026-05-05 06:12 | 51.47588 | -0.46858 | 91 ft | 11 kts | 259° |
| 2026-05-05 06:12 | 51.47536 | -0.46926 | 95 ft | 12 kts | 174° |
| 2026-05-05 06:12 | 51.47452 | -0.46896 | 95 ft | 13 kts | 167° |
| 2026-05-05 06:12 | 51.47363 | -0.46868 | 92 ft | 11 kts | 175° |
| 2026-05-05 06:13 | 51.47283 | -0.46865 | 91 ft | 10 kts | 179° |
| 2026-05-05 06:13 | 51.47238 | -0.46789 | 94 ft | 11 kts | 94° |
| 2026-05-05 06:13 | 51.47239 | -0.46657 | 91 ft | 13 kts | 89° |
| 2026-05-05 06:13 | 51.47239 | -0.46539 | 91 ft | 11 kts | 89° |
| 2026-05-05 06:14 | 51.47227 | -0.46418 | 95 ft | 12 kts | 124° |
| 2026-05-05 06:14 | 51.47167 | -0.46345 | 94 ft | 10 kts | 148° |
| 2026-05-05 06:14 | 51.47108 | -0.46282 | 94 ft | 1 kts | 143° |
| 2026-05-05 06:14 | 51.47103 | -0.46275 | 93 ft | 2 kts | 143° |
| 2026-05-05 06:15 | 51.47101 | -0.46274 | 93 ft | 0 kts | 143° |
| 2026-05-05 06:15 | 51.47093 | -0.46264 | 93 ft | 2 kts | 143° |
| 2026-05-05 06:15 | 51.47074 | -0.46242 | 94 ft | 4 kts | 146° |